sensor_id;sensor_type;location;lat;lon;timestamp;P1;durP1;ratioP1;P2;durP2;ratioP2
76332;SDS011;71254;53.010;6.508;2023-09-19T00:00:20;5.80;;;2.17;;
76332;SDS011;71254;53.010;6.508;2023-09-19T00:02:54;6.03;;;2.10;;
76332;SDS011;71254;53.010;6.508;2023-09-19T00:05:29;6.00;;;2.43;;
76332;SDS011;71254;53.010;6.508;2023-09-19T00:08:00;8.02;;;2.15;;
76332;SDS011;71254;53.010;6.508;2023-09-19T00:10:26;6.32;;;2.00;;
76332;SDS011;71254;53.010;6.508;2023-09-19T00:12:56;11.07;;;2.28;;
76332;SDS011;71254;53.010;6.508;2023-09-19T00:15:24;7.57;;;2.28;;
76332;SDS011;71254;53.010;6.508;2023-09-19T00:17:51;6.03;;;2.17;;
76332;SDS011;71254;53.010;6.508;2023-09-19T00:20:17;5.90;;;2.13;;
76332;SDS011;71254;53.010;6.508;2023-09-19T00:22:43;6.97;;;2.10;;
76332;SDS011;71254;53.010;6.508;2023-09-19T00:25:10;5.88;;;2.15;;
76332;SDS011;71254;53.010;6.508;2023-09-19T00:27:39;6.45;;;2.47;;
76332;SDS011;71254;53.010;6.508;2023-09-19T00:30:06;8.30;;;2.05;;
76332;SDS011;71254;53.010;6.508;2023-09-19T00:32:41;6.18;;;2.47;;
76332;SDS011;71254;53.010;6.508;2023-09-19T00:35:07;7.68;;;2.35;;
76332;SDS011;71254;53.010;6.508;2023-09-19T00:37:37;8.43;;;2.30;;
76332;SDS011;71254;53.010;6.508;2023-09-19T00:40:05;8.20;;;2.03;;
76332;SDS011;71254;53.010;6.508;2023-09-19T00:42:32;8.13;;;2.10;;
76332;SDS011;71254;53.010;6.508;2023-09-19T00:44:58;7.38;;;2.10;;
76332;SDS011;71254;53.010;6.508;2023-09-19T00:47:28;7.07;;;2.03;;
76332;SDS011;71254;53.010;6.508;2023-09-19T00:49:54;7.50;;;2.42;;
76332;SDS011;71254;53.010;6.508;2023-09-19T00:52:21;9.13;;;2.28;;
76332;SDS011;71254;53.010;6.508;2023-09-19T00:54:48;7.75;;;2.58;;
76332;SDS011;71254;53.010;6.508;2023-09-19T00:57:14;6.15;;;2.20;;
76332;SDS011;71254;53.010;6.508;2023-09-19T00:59:40;6.10;;;2.20;;
76332;SDS011;71254;53.010;6.508;2023-09-19T01:02:07;7.95;;;2.38;;
76332;SDS011;71254;53.010;6.508;2023-09-19T01:04:33;9.65;;;2.28;;
76332;SDS011;71254;53.010;6.508;2023-09-19T01:06:59;7.88;;;2.50;;
76332;SDS011;71254;53.010;6.508;2023-09-19T01:09:25;9.55;;;3.03;;
76332;SDS011;71254;53.010;6.508;2023-09-19T01:11:52;9.90;;;2.70;;
76332;SDS011;71254;53.010;6.508;2023-09-19T01:14:34;4.47;;;2.17;;
76332;SDS011;71254;53.010;6.508;2023-09-19T01:17:14;6.70;;;2.70;;
76332;SDS011;71254;53.010;6.508;2023-09-19T01:22:56;8.73;;;2.50;;
76332;SDS011;71254;53.010;6.508;2023-09-19T01:25:54;9.43;;;2.10;;
76332;SDS011;71254;53.010;6.508;2023-09-19T01:29:12;6.28;;;2.45;;
76332;SDS011;71254;53.010;6.508;2023-09-19T01:31:40;12.00;;;2.72;;
76332;SDS011;71254;53.010;6.508;2023-09-19T01:34:09;7.05;;;2.05;;
76332;SDS011;71254;53.010;6.508;2023-09-19T01:36:36;7.75;;;2.55;;
76332;SDS011;71254;53.010;6.508;2023-09-19T01:39:04;4.78;;;2.22;;
76332;SDS011;71254;53.010;6.508;2023-09-19T01:44:51;9.02;;;2.45;;
76332;SDS011;71254;53.010;6.508;2023-09-19T01:47:34;8.18;;;2.80;;
76332;SDS011;71254;53.010;6.508;2023-09-19T01:53:10;6.30;;;2.42;;
76332;SDS011;71254;53.010;6.508;2023-09-19T01:55:46;7.50;;;2.10;;
76332;SDS011;71254;53.010;6.508;2023-09-19T02:00:47;9.43;;;2.60;;
76332;SDS011;71254;53.010;6.508;2023-09-19T02:03:17;8.68;;;2.70;;
76332;SDS011;71254;53.010;6.508;2023-09-19T02:05:48;10.32;;;2.60;;
76332;SDS011;71254;53.010;6.508;2023-09-19T02:08:17;5.05;;;2.42;;
76332;SDS011;71254;53.010;6.508;2023-09-19T02:10:44;11.65;;;2.88;;
76332;SDS011;71254;53.010;6.508;2023-09-19T02:13:17;7.90;;;2.63;;
76332;SDS011;71254;53.010;6.508;2023-09-19T02:15:44;9.23;;;2.60;;
76332;SDS011;71254;53.010;6.508;2023-09-19T02:18:11;9.25;;;2.20;;
76332;SDS011;71254;53.010;6.508;2023-09-19T02:20:37;6.75;;;1.92;;
76332;SDS011;71254;53.010;6.508;2023-09-19T02:23:04;6.70;;;2.03;;
76332;SDS011;71254;53.010;6.508;2023-09-19T02:25:30;6.45;;;2.70;;
76332;SDS011;71254;53.010;6.508;2023-09-19T02:27:57;7.70;;;2.40;;
76332;SDS011;71254;53.010;6.508;2023-09-19T02:30:23;8.90;;;2.58;;
76332;SDS011;71254;53.010;6.508;2023-09-19T02:32:51;6.53;;;2.50;;
76332;SDS011;71254;53.010;6.508;2023-09-19T02:35:17;7.18;;;2.42;;
76332;SDS011;71254;53.010;6.508;2023-09-19T02:37:45;11.25;;;3.03;;
76332;SDS011;71254;53.010;6.508;2023-09-19T02:40:11;5.28;;;2.28;;
76332;SDS011;71254;53.010;6.508;2023-09-19T02:42:52;9.63;;;2.53;;
76332;SDS011;71254;53.010;6.508;2023-09-19T02:45:19;9.05;;;2.80;;
76332;SDS011;71254;53.010;6.508;2023-09-19T02:47:45;9.68;;;2.80;;
76332;SDS011;71254;53.010;6.508;2023-09-19T02:50:11;8.38;;;2.88;;
76332;SDS011;71254;53.010;6.508;2023-09-19T02:52:38;8.95;;;2.42;;
76332;SDS011;71254;53.010;6.508;2023-09-19T02:55:08;8.10;;;3.08;;
76332;SDS011;71254;53.010;6.508;2023-09-19T02:57:34;7.28;;;2.65;;
76332;SDS011;71254;53.010;6.508;2023-09-19T03:00:01;8.30;;;2.45;;
76332;SDS011;71254;53.010;6.508;2023-09-19T03:02:27;7.95;;;2.53;;
76332;SDS011;71254;53.010;6.508;2023-09-19T03:04:53;5.63;;;2.58;;
76332;SDS011;71254;53.010;6.508;2023-09-19T03:07:21;7.28;;;2.78;;
76332;SDS011;71254;53.010;6.508;2023-09-19T03:09:47;6.47;;;2.92;;
76332;SDS011;71254;53.010;6.508;2023-09-19T03:12:12;10.50;;;2.72;;
76332;SDS011;71254;53.010;6.508;2023-09-19T03:14:40;10.70;;;3.22;;
76332;SDS011;71254;53.010;6.508;2023-09-19T03:17:06;6.93;;;2.70;;
76332;SDS011;71254;53.010;6.508;2023-09-19T03:19:34;7.97;;;2.47;;
76332;SDS011;71254;53.010;6.508;2023-09-19T03:21:59;10.73;;;2.67;;
76332;SDS011;71254;53.010;6.508;2023-09-19T03:24:25;8.57;;;2.33;;
76332;SDS011;71254;53.010;6.508;2023-09-19T03:26:51;11.77;;;3.13;;
76332;SDS011;71254;53.010;6.508;2023-09-19T03:29:17;6.13;;;2.30;;
76332;SDS011;71254;53.010;6.508;2023-09-19T03:31:43;8.63;;;3.00;;
76332;SDS011;71254;53.010;6.508;2023-09-19T03:34:09;5.30;;;2.47;;
76332;SDS011;71254;53.010;6.508;2023-09-19T03:36:35;5.55;;;2.28;;
76332;SDS011;71254;53.010;6.508;2023-09-19T03:39:01;7.13;;;2.70;;
76332;SDS011;71254;53.010;6.508;2023-09-19T03:41:30;10.35;;;2.88;;
76332;SDS011;71254;53.010;6.508;2023-09-19T03:43:56;5.85;;;2.60;;
76332;SDS011;71254;53.010;6.508;2023-09-19T03:46:22;8.00;;;3.20;;
76332;SDS011;71254;53.010;6.508;2023-09-19T03:48:47;6.78;;;3.38;;
76332;SDS011;71254;53.010;6.508;2023-09-19T03:51:13;6.45;;;2.13;;
76332;SDS011;71254;53.010;6.508;2023-09-19T03:53:39;7.40;;;2.53;;
76332;SDS011;71254;53.010;6.508;2023-09-19T03:56:04;9.98;;;2.85;;
76332;SDS011;71254;53.010;6.508;2023-09-19T03:58:30;6.50;;;2.72;;
76332;SDS011;71254;53.010;6.508;2023-09-19T04:00:56;7.70;;;2.45;;
76332;SDS011;71254;53.010;6.508;2023-09-19T04:03:23;6.38;;;2.40;;
76332;SDS011;71254;53.010;6.508;2023-09-19T04:05:49;7.15;;;2.92;;
76332;SDS011;71254;53.010;6.508;2023-09-19T04:08:15;11.82;;;2.70;;
76332;SDS011;71254;53.010;6.508;2023-09-19T04:10:44;9.23;;;2.78;;
76332;SDS011;71254;53.010;6.508;2023-09-19T04:13:10;6.00;;;2.47;;
76332;SDS011;71254;53.010;6.508;2023-09-19T04:15:36;7.15;;;2.80;;
76332;SDS011;71254;53.010;6.508;2023-09-19T04:18:02;5.40;;;2.38;;
76332;SDS011;71254;53.010;6.508;2023-09-19T04:20:28;8.80;;;2.70;;
76332;SDS011;71254;53.010;6.508;2023-09-19T04:22:54;8.50;;;2.47;;
76332;SDS011;71254;53.010;6.508;2023-09-19T04:25:20;6.85;;;2.60;;
76332;SDS011;71254;53.010;6.508;2023-09-19T04:27:46;6.15;;;2.45;;
76332;SDS011;71254;53.010;6.508;2023-09-19T04:30:11;9.57;;;2.95;;
76332;SDS011;71254;53.010;6.508;2023-09-19T04:32:40;6.68;;;3.10;;
76332;SDS011;71254;53.010;6.508;2023-09-19T04:35:07;6.28;;;2.30;;
76332;SDS011;71254;53.010;6.508;2023-09-19T04:37:35;8.68;;;2.95;;
76332;SDS011;71254;53.010;6.508;2023-09-19T04:40:03;7.72;;;3.85;;
76332;SDS011;71254;53.010;6.508;2023-09-19T04:42:31;8.90;;;3.50;;
76332;SDS011;71254;53.010;6.508;2023-09-19T04:44:57;8.85;;;2.80;;
76332;SDS011;71254;53.010;6.508;2023-09-19T04:47:25;6.45;;;2.88;;
76332;SDS011;71254;53.010;6.508;2023-09-19T04:49:51;7.32;;;3.22;;
76332;SDS011;71254;53.010;6.508;2023-09-19T04:52:16;6.55;;;2.45;;
76332;SDS011;71254;53.010;6.508;2023-09-19T04:54:42;7.70;;;2.83;;
76332;SDS011;71254;53.010;6.508;2023-09-19T04:57:08;6.85;;;2.70;;
76332;SDS011;71254;53.010;6.508;2023-09-19T04:59:33;5.53;;;2.47;;
76332;SDS011;71254;53.010;6.508;2023-09-19T05:01:59;8.73;;;2.67;;
76332;SDS011;71254;53.010;6.508;2023-09-19T05:04:25;7.72;;;3.17;;
76332;SDS011;71254;53.010;6.508;2023-09-19T05:06:50;7.80;;;2.75;;
76332;SDS011;71254;53.010;6.508;2023-09-19T05:09:16;7.35;;;2.88;;
76332;SDS011;71254;53.010;6.508;2023-09-19T05:11:44;9.65;;;3.40;;
76332;SDS011;71254;53.010;6.508;2023-09-19T05:14:11;10.07;;;3.10;;
76332;SDS011;71254;53.010;6.508;2023-09-19T05:16:37;4.97;;;2.63;;
76332;SDS011;71254;53.010;6.508;2023-09-19T05:19:02;6.53;;;2.42;;
76332;SDS011;71254;53.010;6.508;2023-09-19T05:21:28;6.60;;;2.53;;
76332;SDS011;71254;53.010;6.508;2023-09-19T05:23:56;7.32;;;2.70;;
76332;SDS011;71254;53.010;6.508;2023-09-19T05:26:21;8.30;;;2.78;;
76332;SDS011;71254;53.010;6.508;2023-09-19T05:28:47;5.85;;;2.50;;
76332;SDS011;71254;53.010;6.508;2023-09-19T05:31:13;9.25;;;2.60;;
76332;SDS011;71254;53.010;6.508;2023-09-19T05:33:40;7.93;;;2.90;;
76332;SDS011;71254;53.010;6.508;2023-09-19T05:36:07;5.93;;;2.75;;
76332;SDS011;71254;53.010;6.508;2023-09-19T05:38:35;6.72;;;2.65;;
76332;SDS011;71254;53.010;6.508;2023-09-19T05:41:02;8.48;;;2.75;;
76332;SDS011;71254;53.010;6.508;2023-09-19T05:43:27;5.65;;;2.65;;
76332;SDS011;71254;53.010;6.508;2023-09-19T05:45:53;10.73;;;3.83;;
76332;SDS011;71254;53.010;6.508;2023-09-19T05:48:21;11.27;;;3.85;;
76332;SDS011;71254;53.010;6.508;2023-09-19T05:50:47;8.98;;;2.85;;
76332;SDS011;71254;53.010;6.508;2023-09-19T05:53:14;8.70;;;2.60;;
76332;SDS011;71254;53.010;6.508;2023-09-19T05:55:40;9.30;;;2.85;;
76332;SDS011;71254;53.010;6.508;2023-09-19T05:58:06;7.68;;;2.60;;
76332;SDS011;71254;53.010;6.508;2023-09-19T06:00:32;8.32;;;2.80;;
76332;SDS011;71254;53.010;6.508;2023-09-19T06:02:58;8.07;;;2.50;;
76332;SDS011;71254;53.010;6.508;2023-09-19T06:05:24;9.73;;;2.80;;
76332;SDS011;71254;53.010;6.508;2023-09-19T06:07:52;11.35;;;3.05;;
76332;SDS011;71254;53.010;6.508;2023-09-19T06:10:18;8.68;;;2.53;;
76332;SDS011;71254;53.010;6.508;2023-09-19T06:12:46;10.95;;;2.90;;
76332;SDS011;71254;53.010;6.508;2023-09-19T06:15:12;7.80;;;2.60;;
76332;SDS011;71254;53.010;6.508;2023-09-19T06:17:50;8.02;;;2.78;;
76332;SDS011;71254;53.010;6.508;2023-09-19T06:20:20;9.13;;;2.75;;
76332;SDS011;71254;53.010;6.508;2023-09-19T06:22:47;11.98;;;3.00;;
76332;SDS011;71254;53.010;6.508;2023-09-19T06:25:14;9.05;;;2.92;;
76332;SDS011;71254;53.010;6.508;2023-09-19T06:27:51;8.40;;;2.90;;
76332;SDS011;71254;53.010;6.508;2023-09-19T06:30:18;11.15;;;3.35;;
76332;SDS011;71254;53.010;6.508;2023-09-19T06:32:45;8.65;;;3.78;;
76332;SDS011;71254;53.010;6.508;2023-09-19T06:35:13;8.60;;;3.13;;
76332;SDS011;71254;53.010;6.508;2023-09-19T06:37:40;8.15;;;3.30;;
76332;SDS011;71254;53.010;6.508;2023-09-19T06:40:08;6.25;;;2.92;;
76332;SDS011;71254;53.010;6.508;2023-09-19T06:42:44;7.95;;;2.88;;
76332;SDS011;71254;53.010;6.508;2023-09-19T06:45:12;8.70;;;3.00;;
76332;SDS011;71254;53.010;6.508;2023-09-19T06:47:42;10.82;;;3.63;;
76332;SDS011;71254;53.010;6.508;2023-09-19T06:50:14;8.50;;;2.95;;
76332;SDS011;71254;53.010;6.508;2023-09-19T06:52:40;11.60;;;3.67;;
76332;SDS011;71254;53.010;6.508;2023-09-19T06:55:06;11.82;;;3.60;;
76332;SDS011;71254;53.010;6.508;2023-09-19T06:57:32;8.60;;;2.85;;
76332;SDS011;71254;53.010;6.508;2023-09-19T06:59:58;7.78;;;2.75;;
76332;SDS011;71254;53.010;6.508;2023-09-19T07:02:23;6.15;;;2.60;;
76332;SDS011;71254;53.010;6.508;2023-09-19T07:04:49;7.90;;;2.83;;
76332;SDS011;71254;53.010;6.508;2023-09-19T07:07:15;11.75;;;3.30;;
76332;SDS011;71254;53.010;6.508;2023-09-19T07:09:41;7.20;;;2.47;;
76332;SDS011;71254;53.010;6.508;2023-09-19T07:12:07;7.53;;;3.50;;
76332;SDS011;71254;53.010;6.508;2023-09-19T07:14:33;8.50;;;3.05;;
76332;SDS011;71254;53.010;6.508;2023-09-19T07:16:59;8.98;;;2.85;;
76332;SDS011;71254;53.010;6.508;2023-09-19T07:19:28;6.18;;;2.92;;
76332;SDS011;71254;53.010;6.508;2023-09-19T07:21:56;6.95;;;2.67;;
76332;SDS011;71254;53.010;6.508;2023-09-19T07:24:24;9.02;;;3.03;;
76332;SDS011;71254;53.010;6.508;2023-09-19T07:26:52;10.55;;;3.20;;
76332;SDS011;71254;53.010;6.508;2023-09-19T07:29:17;8.27;;;2.58;;
76332;SDS011;71254;53.010;6.508;2023-09-19T07:31:43;6.00;;;2.58;;
76332;SDS011;71254;53.010;6.508;2023-09-19T07:34:09;10.10;;;2.85;;
76332;SDS011;71254;53.010;6.508;2023-09-19T07:36:35;11.30;;;2.75;;
76332;SDS011;71254;53.010;6.508;2023-09-19T07:39:02;7.30;;;2.45;;
76332;SDS011;71254;53.010;6.508;2023-09-19T07:41:31;9.63;;;2.50;;
76332;SDS011;71254;53.010;6.508;2023-09-19T07:43:57;8.85;;;2.83;;
76332;SDS011;71254;53.010;6.508;2023-09-19T07:46:23;6.65;;;2.53;;
76332;SDS011;71254;53.010;6.508;2023-09-19T07:48:51;6.88;;;2.65;;
76332;SDS011;71254;53.010;6.508;2023-09-19T07:51:16;5.88;;;2.63;;
76332;SDS011;71254;53.010;6.508;2023-09-19T07:53:42;9.35;;;2.20;;
76332;SDS011;71254;53.010;6.508;2023-09-19T07:56:09;7.40;;;2.30;;
76332;SDS011;71254;53.010;6.508;2023-09-19T07:58:35;6.70;;;2.65;;
76332;SDS011;71254;53.010;6.508;2023-09-19T08:01:06;6.50;;;2.50;;
76332;SDS011;71254;53.010;6.508;2023-09-19T08:03:33;6.32;;;2.67;;
76332;SDS011;71254;53.010;6.508;2023-09-19T08:05:59;4.88;;;2.17;;
76332;SDS011;71254;53.010;6.508;2023-09-19T08:08:26;10.20;;;3.08;;
76332;SDS011;71254;53.010;6.508;2023-09-19T08:10:52;8.13;;;2.70;;
76332;SDS011;71254;53.010;6.508;2023-09-19T08:13:20;6.03;;;2.67;;
76332;SDS011;71254;53.010;6.508;2023-09-19T08:15:46;7.18;;;2.72;;
76332;SDS011;71254;53.010;6.508;2023-09-19T08:18:13;7.25;;;3.03;;
76332;SDS011;71254;53.010;6.508;2023-09-19T08:20:39;6.93;;;2.70;;
76332;SDS011;71254;53.010;6.508;2023-09-19T08:23:07;8.30;;;3.03;;
76332;SDS011;71254;53.010;6.508;2023-09-19T08:25:33;7.07;;;2.85;;
76332;SDS011;71254;53.010;6.508;2023-09-19T08:27:59;5.70;;;2.45;;
76332;SDS011;71254;53.010;6.508;2023-09-19T08:30:28;9.35;;;2.60;;
76332;SDS011;71254;53.010;6.508;2023-09-19T08:33:01;8.50;;;3.17;;
76332;SDS011;71254;53.010;6.508;2023-09-19T08:35:29;8.73;;;3.05;;
76332;SDS011;71254;53.010;6.508;2023-09-19T08:37:55;10.00;;;3.20;;
76332;SDS011;71254;53.010;6.508;2023-09-19T08:40:21;10.13;;;2.80;;
76332;SDS011;71254;53.010;6.508;2023-09-19T08:42:50;8.43;;;3.08;;
76332;SDS011;71254;53.010;6.508;2023-09-19T08:45:19;10.20;;;3.40;;
76332;SDS011;71254;53.010;6.508;2023-09-19T08:48:08;6.95;;;3.10;;
76332;SDS011;71254;53.010;6.508;2023-09-19T08:50:51;9.20;;;2.97;;
76332;SDS011;71254;53.010;6.508;2023-09-19T08:53:26;10.52;;;3.35;;
76332;SDS011;71254;53.010;6.508;2023-09-19T08:55:59;9.80;;;3.03;;
76332;SDS011;71254;53.010;6.508;2023-09-19T08:58:30;7.75;;;3.38;;
76332;SDS011;71254;53.010;6.508;2023-09-19T09:01:00;8.02;;;3.05;;
76332;SDS011;71254;53.010;6.508;2023-09-19T09:03:26;11.88;;;3.45;;
76332;SDS011;71254;53.010;6.508;2023-09-19T09:05:56;9.30;;;3.33;;
76332;SDS011;71254;53.010;6.508;2023-09-19T09:08:23;6.97;;;3.40;;
76332;SDS011;71254;53.010;6.508;2023-09-19T09:10:49;8.57;;;4.00;;
76332;SDS011;71254;53.010;6.508;2023-09-19T09:13:16;9.82;;;3.47;;
76332;SDS011;71254;53.010;6.508;2023-09-19T09:15:42;6.88;;;3.03;;
76332;SDS011;71254;53.010;6.508;2023-09-19T09:18:09;10.55;;;3.50;;
76332;SDS011;71254;53.010;6.508;2023-09-19T09:20:35;10.35;;;3.10;;
76332;SDS011;71254;53.010;6.508;2023-09-19T09:23:01;11.00;;;3.28;;
76332;SDS011;71254;53.010;6.508;2023-09-19T09:28:18;10.02;;;3.33;;
76332;SDS011;71254;53.010;6.508;2023-09-19T09:30:46;9.38;;;3.22;;
76332;SDS011;71254;53.010;6.508;2023-09-19T09:33:12;9.13;;;3.15;;
76332;SDS011;71254;53.010;6.508;2023-09-19T09:35:49;9.05;;;2.83;;
76332;SDS011;71254;53.010;6.508;2023-09-19T09:38:19;8.65;;;4.15;;
76332;SDS011;71254;53.010;6.508;2023-09-19T09:40:46;10.23;;;2.97;;
76332;SDS011;71254;53.010;6.508;2023-09-19T09:43:30;9.52;;;3.03;;
76332;SDS011;71254;53.010;6.508;2023-09-19T09:49:01;8.48;;;3.03;;
76332;SDS011;71254;53.010;6.508;2023-09-19T09:52:01;9.48;;;3.05;;
76332;SDS011;71254;53.010;6.508;2023-09-19T09:54:58;7.47;;;3.17;;
76332;SDS011;71254;53.010;6.508;2023-09-19T09:57:25;9.50;;;3.03;;
76332;SDS011;71254;53.010;6.508;2023-09-19T09:59:55;8.63;;;3.17;;
76332;SDS011;71254;53.010;6.508;2023-09-19T10:02:37;8.88;;;3.20;;
76332;SDS011;71254;53.010;6.508;2023-09-19T10:05:18;8.25;;;3.20;;
76332;SDS011;71254;53.010;6.508;2023-09-19T10:07:45;6.40;;;2.85;;
76332;SDS011;71254;53.010;6.508;2023-09-19T10:13:17;7.68;;;3.08;;
76332;SDS011;71254;53.010;6.508;2023-09-19T10:15:48;7.32;;;3.05;;
76332;SDS011;71254;53.010;6.508;2023-09-19T10:18:16;8.77;;;3.00;;
76332;SDS011;71254;53.010;6.508;2023-09-19T10:20:45;9.55;;;3.00;;
76332;SDS011;71254;53.010;6.508;2023-09-19T10:23:13;6.95;;;2.55;;
76332;SDS011;71254;53.010;6.508;2023-09-19T10:25:40;8.50;;;3.55;;
76332;SDS011;71254;53.010;6.508;2023-09-19T10:28:07;8.15;;;2.83;;
76332;SDS011;71254;53.010;6.508;2023-09-19T10:30:39;8.00;;;3.20;;
76332;SDS011;71254;53.010;6.508;2023-09-19T10:33:13;9.45;;;3.70;;
76332;SDS011;71254;53.010;6.508;2023-09-19T10:35:42;8.88;;;3.40;;
76332;SDS011;71254;53.010;6.508;2023-09-19T10:38:09;9.32;;;3.97;;
76332;SDS011;71254;53.010;6.508;2023-09-19T10:40:36;6.55;;;3.33;;
76332;SDS011;71254;53.010;6.508;2023-09-19T10:43:11;10.98;;;3.47;;
76332;SDS011;71254;53.010;6.508;2023-09-19T10:45:47;8.57;;;3.30;;
76332;SDS011;71254;53.010;6.508;2023-09-19T10:48:14;7.20;;;2.97;;
76332;SDS011;71254;53.010;6.508;2023-09-19T10:51:06;8.00;;;2.95;;
76332;SDS011;71254;53.010;6.508;2023-09-19T10:53:41;9.40;;;3.17;;
76332;SDS011;71254;53.010;6.508;2023-09-19T10:56:14;8.55;;;3.08;;
76332;SDS011;71254;53.010;6.508;2023-09-19T10:58:48;9.40;;;3.53;;
76332;SDS011;71254;53.010;6.508;2023-09-19T11:01:14;8.07;;;3.30;;
76332;SDS011;71254;53.010;6.508;2023-09-19T11:03:41;10.48;;;3.55;;
76332;SDS011;71254;53.010;6.508;2023-09-19T11:06:13;8.95;;;2.88;;
76332;SDS011;71254;53.010;6.508;2023-09-19T11:09:02;10.05;;;3.80;;
76332;SDS011;71254;53.010;6.508;2023-09-19T11:11:45;7.85;;;2.95;;
76332;SDS011;71254;53.010;6.508;2023-09-19T11:14:16;7.00;;;3.00;;
76332;SDS011;71254;53.010;6.508;2023-09-19T11:30:45;7.65;;;2.60;;
76332;SDS011;71254;53.010;6.508;2023-09-19T11:36:03;9.35;;;2.85;;
76332;SDS011;71254;53.010;6.508;2023-09-19T11:49:16;11.07;;;2.92;;
76332;SDS011;71254;53.010;6.508;2023-09-19T11:51:46;9.70;;;3.78;;
76332;SDS011;71254;53.010;6.508;2023-09-19T11:54:15;9.88;;;2.97;;
76332;SDS011;71254;53.010;6.508;2023-09-19T11:56:43;8.02;;;2.88;;
76332;SDS011;71254;53.010;6.508;2023-09-19T11:59:10;7.32;;;3.15;;
76332;SDS011;71254;53.010;6.508;2023-09-19T12:01:37;10.38;;;2.80;;
76332;SDS011;71254;53.010;6.508;2023-09-19T12:04:08;7.97;;;2.75;;
76332;SDS011;71254;53.010;6.508;2023-09-19T12:06:36;11.20;;;2.83;;
76332;SDS011;71254;53.010;6.508;2023-09-19T12:09:07;8.98;;;3.22;;
76332;SDS011;71254;53.010;6.508;2023-09-19T12:11:41;7.88;;;2.45;;
76332;SDS011;71254;53.010;6.508;2023-09-19T12:14:09;10.60;;;3.08;;
76332;SDS011;71254;53.010;6.508;2023-09-19T12:16:35;7.70;;;2.53;;
76332;SDS011;71254;53.010;6.508;2023-09-19T12:19:17;8.85;;;3.10;;
76332;SDS011;71254;53.010;6.508;2023-09-19T12:21:57;10.85;;;2.92;;
76332;SDS011;71254;53.010;6.508;2023-09-19T12:24:29;7.40;;;2.65;;
76332;SDS011;71254;53.010;6.508;2023-09-19T12:26:59;8.75;;;2.80;;
76332;SDS011;71254;53.010;6.508;2023-09-19T12:29:26;8.52;;;3.03;;
76332;SDS011;71254;53.010;6.508;2023-09-19T12:34:28;6.45;;;2.67;;
76332;SDS011;71254;53.010;6.508;2023-09-19T12:37:12;8.68;;;2.60;;
76332;SDS011;71254;53.010;6.508;2023-09-19T12:39:47;5.88;;;2.72;;
76332;SDS011;71254;53.010;6.508;2023-09-19T12:42:22;11.82;;;2.38;;
76332;SDS011;71254;53.010;6.508;2023-09-19T12:44:56;7.60;;;2.60;;
76332;SDS011;71254;53.010;6.508;2023-09-19T12:47:25;7.30;;;2.23;;
76332;SDS011;71254;53.010;6.508;2023-09-19T12:55:23;8.52;;;2.85;;
76332;SDS011;71254;53.010;6.508;2023-09-19T12:57:57;5.82;;;3.05;;
76332;SDS011;71254;53.010;6.508;2023-09-19T13:00:36;7.40;;;2.60;;
76332;SDS011;71254;53.010;6.508;2023-09-19T13:03:13;8.57;;;2.42;;
76332;SDS011;71254;53.010;6.508;2023-09-19T13:05:54;8.55;;;2.35;;
76332;SDS011;71254;53.010;6.508;2023-09-19T13:08:23;8.55;;;2.80;;
76332;SDS011;71254;53.010;6.508;2023-09-19T13:13:36;6.30;;;2.60;;
76332;SDS011;71254;53.010;6.508;2023-09-19T13:16:03;5.55;;;2.40;;
76332;SDS011;71254;53.010;6.508;2023-09-19T13:18:46;9.05;;;2.90;;
76332;SDS011;71254;53.010;6.508;2023-09-19T13:21:15;8.38;;;2.60;;
76332;SDS011;71254;53.010;6.508;2023-09-19T13:23:51;4.30;;;1.80;;
76332;SDS011;71254;53.010;6.508;2023-09-19T13:26:17;6.18;;;2.13;;
76332;SDS011;71254;53.010;6.508;2023-09-19T13:28:44;3.92;;;2.20;;
76332;SDS011;71254;53.010;6.508;2023-09-19T13:31:10;5.25;;;1.80;;
76332;SDS011;71254;53.010;6.508;2023-09-19T13:33:42;6.20;;;1.95;;
76332;SDS011;71254;53.010;6.508;2023-09-19T13:36:12;4.72;;;2.38;;
76332;SDS011;71254;53.010;6.508;2023-09-19T13:38:42;4.97;;;1.80;;
76332;SDS011;71254;53.010;6.508;2023-09-19T13:41:11;6.32;;;1.88;;
76332;SDS011;71254;53.010;6.508;2023-09-19T13:43:38;6.07;;;2.10;;
76332;SDS011;71254;53.010;6.508;2023-09-19T13:46:04;7.68;;;2.33;;
76332;SDS011;71254;53.010;6.508;2023-09-19T13:48:30;5.47;;;2.20;;
76332;SDS011;71254;53.010;6.508;2023-09-19T13:50:56;4.00;;;1.95;;
76332;SDS011;71254;53.010;6.508;2023-09-19T13:53:22;6.50;;;1.35;;
76332;SDS011;71254;53.010;6.508;2023-09-19T13:55:48;6.13;;;1.75;;
76332;SDS011;71254;53.010;6.508;2023-09-19T13:58:14;7.35;;;1.80;;
76332;SDS011;71254;53.010;6.508;2023-09-19T14:00:40;5.10;;;1.73;;
76332;SDS011;71254;53.010;6.508;2023-09-19T14:03:06;6.43;;;2.30;;
76332;SDS011;71254;53.010;6.508;2023-09-19T14:05:31;6.43;;;1.80;;
76332;SDS011;71254;53.010;6.508;2023-09-19T14:07:57;6.03;;;1.98;;
76332;SDS011;71254;53.010;6.508;2023-09-19T14:10:24;5.70;;;2.00;;
76332;SDS011;71254;53.010;6.508;2023-09-19T14:12:52;5.75;;;1.45;;
76332;SDS011;71254;53.010;6.508;2023-09-19T14:15:18;5.13;;;1.90;;
76332;SDS011;71254;53.010;6.508;2023-09-19T14:17:44;6.70;;;1.95;;
76332;SDS011;71254;53.010;6.508;2023-09-19T14:20:10;3.88;;;1.50;;
76332;SDS011;71254;53.010;6.508;2023-09-19T14:22:36;5.53;;;2.13;;
76332;SDS011;71254;53.010;6.508;2023-09-19T14:25:02;4.40;;;1.92;;
76332;SDS011;71254;53.010;6.508;2023-09-19T14:27:29;5.93;;;1.77;;
76332;SDS011;71254;53.010;6.508;2023-09-19T14:29:55;3.42;;;1.52;;
76332;SDS011;71254;53.010;6.508;2023-09-19T14:32:22;8.30;;;1.85;;
76332;SDS011;71254;53.010;6.508;2023-09-19T14:34:47;4.20;;;1.83;;
76332;SDS011;71254;53.010;6.508;2023-09-19T14:37:14;4.63;;;1.77;;
76332;SDS011;71254;53.010;6.508;2023-09-19T14:39:41;5.68;;;1.88;;
76332;SDS011;71254;53.010;6.508;2023-09-19T14:42:10;4.45;;;1.50;;
76332;SDS011;71254;53.010;6.508;2023-09-19T14:44:35;5.95;;;2.05;;
76332;SDS011;71254;53.010;6.508;2023-09-19T14:47:02;5.70;;;1.95;;
76332;SDS011;71254;53.010;6.508;2023-09-19T14:49:32;4.55;;;1.90;;
76332;SDS011;71254;53.010;6.508;2023-09-19T14:51:59;5.03;;;2.00;;
76332;SDS011;71254;53.010;6.508;2023-09-19T14:54:29;4.40;;;1.65;;
76332;SDS011;71254;53.010;6.508;2023-09-19T14:56:55;3.13;;;1.33;;
76332;SDS011;71254;53.010;6.508;2023-09-19T14:59:30;6.28;;;1.88;;
76332;SDS011;71254;53.010;6.508;2023-09-19T15:01:56;7.63;;;1.65;;
76332;SDS011;71254;53.010;6.508;2023-09-19T15:04:23;5.50;;;1.58;;
76332;SDS011;71254;53.010;6.508;2023-09-19T15:06:49;2.97;;;1.63;;
76332;SDS011;71254;53.010;6.508;2023-09-19T15:09:14;5.20;;;1.60;;
76332;SDS011;71254;53.010;6.508;2023-09-19T15:11:40;4.40;;;1.65;;
76332;SDS011;71254;53.010;6.508;2023-09-19T15:14:06;4.55;;;1.40;;
76332;SDS011;71254;53.010;6.508;2023-09-19T15:16:31;3.28;;;1.30;;
76332;SDS011;71254;53.010;6.508;2023-09-19T15:18:57;3.25;;;1.33;;
76332;SDS011;71254;53.010;6.508;2023-09-19T15:21:23;3.28;;;1.60;;
76332;SDS011;71254;53.010;6.508;2023-09-19T15:23:49;6.20;;;1.90;;
76332;SDS011;71254;53.010;6.508;2023-09-19T15:26:15;4.18;;;1.73;;
76332;SDS011;71254;53.010;6.508;2023-09-19T15:28:46;4.57;;;1.50;;
76332;SDS011;71254;53.010;6.508;2023-09-19T15:31:13;7.00;;;2.20;;
76332;SDS011;71254;53.010;6.508;2023-09-19T15:33:38;5.00;;;1.85;;
76332;SDS011;71254;53.010;6.508;2023-09-19T15:36:08;2.95;;;1.50;;
76332;SDS011;71254;53.010;6.508;2023-09-19T15:41:33;7.65;;;2.22;;
76332;SDS011;71254;53.010;6.508;2023-09-19T15:44:02;3.75;;;2.05;;
76332;SDS011;71254;53.010;6.508;2023-09-19T15:46:32;5.22;;;1.85;;
76332;SDS011;71254;53.010;6.508;2023-09-19T15:48:59;6.03;;;2.03;;
76332;SDS011;71254;53.010;6.508;2023-09-19T15:51:25;3.65;;;1.85;;
76332;SDS011;71254;53.010;6.508;2023-09-19T15:53:52;4.28;;;1.70;;
76332;SDS011;71254;53.010;6.508;2023-09-19T15:56:19;4.93;;;2.15;;